THY6390 RJAA-UHPP
Flight info
| Callsign | THY6390 |
|---|---|
| Flight time | 2h 58m |
| Altitude | 36000 |
| Route | TETRA KIMIN Y117 JYONA Y11 NAVER Y139 ASIBE Y116 BISIV/K0882F360 G583 UB T577 SAMIK SAMIK5N |
| Aircraft | B77L/H-SDE1E2E3FGHIJ2J3J4J5M1RWXY/LB1D1 |
Departure
| Time | 2026-04-20 15:03 |
|---|---|
| Airport | Narita International Airport (RJAA) |
Arrival
| Time | 2026-04-20 18:01 |
|---|---|
| Airport | Yelizovo Airport (UHPP) |
| Time | Latitude | Longitude | Altitude | Speed | Heading |
|---|---|---|---|---|---|
| 2026-04-20 14:44 | 35.77141 | 140.37829 | 148 ft | 0 kts | 59° |
| 2026-04-20 14:52 | 35.77137 | 140.37820 | 148 ft | 2 kts | 58° |
| 2026-04-20 14:52 | 35.77128 | 140.37803 | 148 ft | 2 kts | 55° |
| 2026-04-20 14:52 | 35.77118 | 140.37787 | 148 ft | 2 kts | 50° |
| 2026-04-20 14:53 | 35.77107 | 140.37771 | 148 ft | 2 kts | 43° |
| 2026-04-20 14:53 | 35.77094 | 140.37758 | 148 ft | 2 kts | 32° |
| 2026-04-20 14:53 | 35.77080 | 140.37749 | 148 ft | 2 kts | 13° |
| 2026-04-20 14:53 | 35.77064 | 140.37747 | 148 ft | 2 kts | 348° |
| 2026-04-20 14:54 | 35.77049 | 140.37753 | 148 ft | 1 kts | 331° |
| 2026-04-20 14:54 | 35.77045 | 140.37756 | 148 ft | 0 kts | 329° |
| 2026-04-20 14:57 | 35.77054 | 140.37750 | 148 ft | 3 kts | 329° |
| 2026-04-20 14:58 | 35.77082 | 140.37729 | 148 ft | 6 kts | 329° |
| 2026-04-20 14:58 | 35.77129 | 140.37695 | 148 ft | 9 kts | 329° |
| 2026-04-20 14:58 | 35.77153 | 140.37623 | 148 ft | 11 kts | 255° |
| 2026-04-20 14:58 | 35.77114 | 140.37530 | 148 ft | 13 kts | 239° |
| 2026-04-20 14:59 | 35.77063 | 140.37425 | 148 ft | 11 kts | 241° |
| 2026-04-20 14:59 | 35.77088 | 140.37341 | 147 ft | 13 kts | 323° |
| 2026-04-20 14:59 | 35.77172 | 140.37279 | 147 ft | 15 kts | 330° |
| 2026-04-20 14:59 | 35.77264 | 140.37213 | 147 ft | 15 kts | 329° |
| 2026-04-20 15:00 | 35.77354 | 140.37148 | 147 ft | 15 kts | 329° |
| 2026-04-20 15:00 | 35.77407 | 140.37109 | 147 ft | 2 kts | 329° |
| 2026-04-20 15:00 | 35.77416 | 140.37102 | 147 ft | 2 kts | 329° |
| 2026-04-20 15:00 | 35.77431 | 140.37092 | 147 ft | 4 kts | 330° |
| 2026-04-20 15:01 | 35.77464 | 140.37069 | 148 ft | 7 kts | 330° |
| 2026-04-20 15:01 | 35.77494 | 140.37030 | 148 ft | 6 kts | 282° |
| 2026-04-20 15:01 | 35.77485 | 140.36976 | 148 ft | 6 kts | 251° |
| 2026-04-20 15:01 | 35.77466 | 140.36924 | 148 ft | 6 kts | 241° |
| 2026-04-20 15:02 | 35.77445 | 140.36878 | 148 ft | 6 kts | 240° |
| 2026-04-20 15:02 | 35.77409 | 140.36855 | 148 ft | 7 kts | 168° |
| 2026-04-20 15:02 | 35.77372 | 140.36879 | 147 ft | 0 kts | 150° |
| 2026-04-20 15:02 | 35.77340 | 140.36902 | 147 ft | 19 kts | 150° |
| 2026-04-20 15:03 | 35.77048 | 140.37113 | 146 ft | 84 kts | 149° |
| 2026-04-20 15:03 | 35.76347 | 140.37619 | 149 ft | 145 kts | 149° |
| 2026-04-20 15:03 | 35.75341 | 140.38345 | 220 ft | 183 kts | 149° |
| 2026-04-20 15:03 | 35.74277 | 140.39124 | 918 ft | 173 kts | 150° |
| 2026-04-20 15:04 | 35.73281 | 140.39874 | 1692 ft | 165 kts | 154° |
| 2026-04-20 15:04 | 35.72264 | 140.40597 | 2169 ft | 176 kts | 154° |
| 2026-04-20 15:04 | 35.71126 | 140.41401 | 2414 ft | 201 kts | 153° |
| 2026-04-20 15:04 | 35.69831 | 140.42319 | 2598 ft | 230 kts | 153° |
| 2026-04-20 15:05 | 35.68410 | 140.43332 | 3171 ft | 242 kts | 153° |
| 2026-04-20 15:05 | 35.66948 | 140.44389 | 3832 ft | 251 kts | 154° |
| 2026-04-20 15:05 | 35.65413 | 140.45494 | 4540 ft | 259 kts | 154° |
| 2026-04-20 15:05 | 35.63810 | 140.46659 | 5247 ft | 267 kts | 154° |
| 2026-04-20 15:06 | 35.62223 | 140.47808 | 6184 ft | 265 kts | 154° |
| 2026-04-20 15:06 | 35.60615 | 140.48966 | 6914 ft | 270 kts | 154° |
| 2026-04-20 15:06 | 35.59003 | 140.50122 | 7688 ft | 271 kts | 154° |
| 2026-04-20 15:06 | 35.57363 | 140.51299 | 8454 ft | 274 kts | 154° |
| 2026-04-20 15:07 | 35.55701 | 140.52489 | 9173 ft | 279 kts | 154° |
| 2026-04-20 15:07 | 35.53928 | 140.53453 | 9801 ft | 276 kts | 174° |
| 2026-04-20 15:07 | 35.52660 | 140.53499 | 10178 ft | 276 kts | 191° |
| 2026-04-20 15:07 | 35.50257 | 140.52182 | 10508 ft | 302 kts | 221° |
| 2026-04-20 15:08 | 35.49299 | 140.50882 | 10614 ft | 316 kts | 235° |
| 2026-04-20 15:08 | 35.48143 | 140.48464 | 10792 ft | 338 kts | 240° |
| 2026-04-20 15:08 | 35.47299 | 140.45702 | 11042 ft | 357 kts | 260° |
| 2026-04-20 15:08 | 35.47394 | 140.42619 | 11685 ft | 371 kts | 281° |
| 2026-04-20 15:09 | 35.48439 | 140.39683 | 12589 ft | 380 kts | 302° |
| 2026-04-20 15:09 | 35.50295 | 140.37358 | 13551 ft | 388 kts | 323° |
| 2026-04-20 15:09 | 35.52691 | 140.35657 | 14250 ft | 394 kts | 328° |
| 2026-04-20 15:09 | 35.55062 | 140.34057 | 14955 ft | 398 kts | 329° |
| 2026-04-20 15:10 | 35.57634 | 140.32767 | 15680 ft | 405 kts | 341° |
| 2026-04-20 15:10 | 35.60385 | 140.31918 | 16485 ft | 408 kts | 343° |
| 2026-04-20 15:10 | 35.63156 | 140.31102 | 17351 ft | 410 kts | 343° |
| 2026-04-20 15:10 | 35.65934 | 140.30253 | 18182 ft | 412 kts | 342° |
| 2026-04-20 15:11 | 35.68721 | 140.29366 | 18873 ft | 415 kts | 341° |
| 2026-04-20 15:11 | 35.71554 | 140.28437 | 19495 ft | 420 kts | 341° |
| 2026-04-20 15:11 | 35.74385 | 140.27500 | 20151 ft | 423 kts | 340° |
| 2026-04-20 15:11 | 35.77242 | 140.26551 | 20814 ft | 425 kts | 339° |
| 2026-04-20 15:12 | 35.80058 | 140.25416 | 21470 ft | 425 kts | 334° |
| 2026-04-20 15:12 | 35.82798 | 140.24048 | 22114 ft | 426 kts | 332° |
| 2026-04-20 15:12 | 35.85537 | 140.22604 | 22742 ft | 429 kts | 331° |
| 2026-04-20 15:12 | 35.88300 | 140.21163 | 23365 ft | 433 kts | 332° |
| 2026-04-20 15:13 | 35.91093 | 140.19743 | 23917 ft | 436 kts | 332° |
| 2026-04-20 15:13 | 35.93918 | 140.18337 | 24447 ft | 438 kts | 332° |
| 2026-04-20 15:13 | 35.96756 | 140.16936 | 25003 ft | 441 kts | 332° |
| 2026-04-20 15:13 | 35.99612 | 140.15524 | 25529 ft | 443 kts | 332° |
| 2026-04-20 15:14 | 36.02485 | 140.14095 | 26056 ft | 446 kts | 332° |
| 2026-04-20 15:14 | 36.05373 | 140.12654 | 26555 ft | 449 kts | 332° |
| 2026-04-20 15:14 | 36.08293 | 140.11196 | 27061 ft | 452 kts | 332° |
| 2026-04-20 15:14 | 36.11228 | 140.09808 | 27526 ft | 457 kts | 337° |
| 2026-04-20 15:15 | 36.14424 | 140.09159 | 27895 ft | 477 kts | 354° |
| 2026-04-20 15:15 | 36.17758 | 140.09489 | 28273 ft | 484 kts | 359° |
| 2026-04-20 15:15 | 36.21167 | 140.09902 | 28639 ft | 488 kts | 358° |
| 2026-04-20 15:15 | 36.24564 | 140.10259 | 29084 ft | 491 kts | 358° |
| 2026-04-20 15:16 | 36.27967 | 140.10579 | 29557 ft | 492 kts | 357° |
| 2026-04-20 15:16 | 36.31402 | 140.10882 | 30019 ft | 493 kts | 357° |
| 2026-04-20 15:16 | 36.34816 | 140.11177 | 30509 ft | 491 kts | 357° |
| 2026-04-20 15:16 | 36.38214 | 140.11473 | 31110 ft | 488 kts | 357° |
| 2026-04-20 15:17 | 36.41597 | 140.11769 | 31613 ft | 486 kts | 357° |
| 2026-04-20 15:17 | 36.45007 | 140.12068 | 32113 ft | 484 kts | 357° |
| 2026-04-20 15:17 | 36.48361 | 140.12362 | 32617 ft | 482 kts | 357° |
| 2026-04-20 15:17 | 36.51693 | 140.12656 | 33128 ft | 479 kts | 357° |
| 2026-04-20 15:18 | 36.55020 | 140.12987 | 33610 ft | 478 kts | 358° |
| 2026-04-20 15:18 | 36.58287 | 140.13376 | 34057 ft | 477 kts | 358° |
| 2026-04-20 15:18 | 36.61596 | 140.13795 | 34390 ft | 477 kts | 358° |
| 2026-04-20 15:18 | 36.64931 | 140.14221 | 34785 ft | 475 kts | 358° |
| 2026-04-20 15:19 | 36.68210 | 140.14633 | 35216 ft | 471 kts | 358° |
| 2026-04-20 15:19 | 36.71424 | 140.15030 | 35613 ft | 468 kts | 357° |
| 2026-04-20 15:19 | 36.74664 | 140.15425 | 35976 ft | 467 kts | 357° |
| 2026-04-20 15:20 | 36.81184 | 140.16207 | 35988 ft | 472 kts | 356° |
| 2026-04-20 15:20 | 36.87704 | 140.17006 | 35973 ft | 469 kts | 357° |
| 2026-04-20 15:21 | 36.94185 | 140.18369 | 35978 ft | 473 kts | 2° |
| 2026-04-20 15:21 | 37.00641 | 140.19968 | 35972 ft | 473 kts | 2° |
| 2026-04-20 15:22 | 37.07104 | 140.21550 | 35975 ft | 473 kts | 2° |
| 2026-04-20 15:22 | 37.13582 | 140.23107 | 35967 ft | 474 kts | 2° |
| 2026-04-20 15:23 | 37.20064 | 140.24665 | 35988 ft | 475 kts | 2° |
| 2026-04-20 15:23 | 37.26579 | 140.26233 | 35973 ft | 477 kts | 2° |
| 2026-04-20 15:24 | 37.33114 | 140.27811 | 35964 ft | 479 kts | 2° |
| 2026-04-20 15:24 | 37.39717 | 140.29409 | 35980 ft | 480 kts | 2° |
| 2026-04-20 15:25 | 37.46298 | 140.31003 | 35962 ft | 482 kts | 2° |
| 2026-04-20 15:25 | 37.52898 | 140.32607 | 35953 ft | 483 kts | 2° |
| 2026-04-20 15:26 | 37.59506 | 140.34213 | 35953 ft | 484 kts | 2° |
| 2026-04-20 15:26 | 37.66115 | 140.35807 | 35982 ft | 483 kts | 2° |
| 2026-04-20 15:27 | 37.72733 | 140.37406 | 35951 ft | 485 kts | 2° |
| 2026-04-20 15:27 | 37.79357 | 140.39012 | 35937 ft | 485 kts | 2° |
| 2026-04-20 15:28 | 37.85996 | 140.40627 | 35952 ft | 486 kts | 2° |
| 2026-04-20 15:28 | 37.92639 | 140.42250 | 35926 ft | 485 kts | 2° |
| 2026-04-20 15:29 | 37.99269 | 140.43869 | 35930 ft | 485 kts | 2° |
| 2026-04-20 15:29 | 38.05911 | 140.45492 | 35932 ft | 486 kts | 2° |
| 2026-04-20 15:30 | 38.12558 | 140.47119 | 35913 ft | 487 kts | 2° |
| 2026-04-20 15:30 | 38.19212 | 140.48758 | 35907 ft | 486 kts | 2° |
| 2026-04-20 15:31 | 38.25859 | 140.50394 | 35921 ft | 486 kts | 2° |
| 2026-04-20 15:31 | 38.32513 | 140.52030 | 35923 ft | 488 kts | 2° |
| 2026-04-20 15:32 | 38.39194 | 140.53687 | 35911 ft | 489 kts | 2° |
| 2026-04-20 15:32 | 38.45895 | 140.55356 | 35913 ft | 491 kts | 2° |
| 2026-04-20 15:33 | 38.52611 | 140.57031 | 35903 ft | 491 kts | 2° |
| 2026-04-20 15:33 | 38.59321 | 140.58710 | 35897 ft | 491 kts | 2° |
| 2026-04-20 15:34 | 38.66024 | 140.60386 | 35921 ft | 491 kts | 2° |
| 2026-04-20 15:34 | 38.72724 | 140.62062 | 35896 ft | 491 kts | 2° |
| 2026-04-20 15:35 | 38.79432 | 140.63746 | 35898 ft | 491 kts | 2° |
| 2026-04-20 15:35 | 38.86141 | 140.65433 | 35926 ft | 491 kts | 2° |
| 2026-04-20 15:36 | 38.92857 | 140.67127 | 35901 ft | 492 kts | 2° |
| 2026-04-20 15:36 | 38.99583 | 140.68823 | 35894 ft | 493 kts | 2° |
| 2026-04-20 15:37 | 39.05178 | 140.70237 | 35898 ft | 494 kts | 2° |
| 2026-04-20 15:37 | 39.11975 | 140.71962 | 35869 ft | 495 kts | 2° |
| 2026-04-20 15:38 | 39.18760 | 140.73680 | 35867 ft | 496 kts | 2° |
| 2026-04-20 15:38 | 39.25556 | 140.75405 | 35882 ft | 498 kts | 2° |
| 2026-04-20 15:39 | 39.32359 | 140.77139 | 35883 ft | 499 kts | 3° |
| 2026-04-20 15:39 | 39.39171 | 140.78874 | 35878 ft | 500 kts | 3° |
| 2026-04-20 15:40 | 39.46011 | 140.80622 | 35882 ft | 500 kts | 3° |
| 2026-04-20 15:40 | 39.52848 | 140.82376 | 35876 ft | 500 kts | 3° |
| 2026-04-20 15:41 | 39.59734 | 140.84143 | 35871 ft | 500 kts | 3° |
| 2026-04-20 15:41 | 39.66603 | 140.85909 | 35866 ft | 500 kts | 3° |
| 2026-04-20 15:42 | 39.73421 | 140.87667 | 35870 ft | 499 kts | 4° |
| 2026-04-20 15:42 | 39.80337 | 140.89451 | 35871 ft | 500 kts | 3° |
| 2026-04-20 15:43 | 39.87182 | 140.91219 | 35860 ft | 501 kts | 3° |
| 2026-04-20 15:43 | 39.93703 | 140.92901 | 35850 ft | 500 kts | 4° |
| 2026-04-20 15:44 | 40.01345 | 140.94873 | 35835 ft | 500 kts | 4° |
| 2026-04-20 15:44 | 40.08213 | 140.96650 | 35843 ft | 500 kts | 4° |
| 2026-04-20 15:45 | 40.15055 | 140.98423 | 35839 ft | 500 kts | 3° |
| 2026-04-20 15:45 | 40.21897 | 141.00199 | 35821 ft | 502 kts | 4° |
| 2026-04-20 15:46 | 40.27546 | 141.01673 | 35821 ft | 502 kts | 4° |
| 2026-04-20 15:46 | 40.34663 | 141.03533 | 35812 ft | 503 kts | 4° |
| 2026-04-20 15:47 | 40.41553 | 141.05334 | 35825 ft | 505 kts | 3° |
| 2026-04-20 15:47 | 40.48466 | 141.07142 | 35803 ft | 507 kts | 3° |
| 2026-04-20 15:48 | 40.55411 | 141.08967 | 35807 ft | 509 kts | 4° |
| 2026-04-20 15:48 | 40.62372 | 141.10802 | 35815 ft | 510 kts | 4° |
| 2026-04-20 15:49 | 40.69345 | 141.12641 | 35818 ft | 511 kts | 3° |
| 2026-04-20 15:49 | 40.76427 | 141.14514 | 35818 ft | 512 kts | 3° |
| 2026-04-20 15:50 | 40.83877 | 141.16497 | 35769 ft | 513 kts | 4° |
| 2026-04-20 15:50 | 40.90875 | 141.18419 | 35778 ft | 514 kts | 4° |
| 2026-04-20 15:51 | 40.97885 | 141.20360 | 35767 ft | 514 kts | 4° |
| 2026-04-20 15:51 | 41.04897 | 141.22298 | 35783 ft | 514 kts | 4° |
| 2026-04-20 15:52 | 41.11916 | 141.24237 | 35787 ft | 514 kts | 4° |
| 2026-04-20 15:52 | 41.18923 | 141.26177 | 35764 ft | 515 kts | 4° |
| 2026-04-20 15:53 | 41.29441 | 141.29099 | 35772 ft | 515 kts | 4° |
| 2026-04-20 15:53 | 41.36453 | 141.31047 | 35796 ft | 514 kts | 4° |
| 2026-04-20 15:54 | 41.43534 | 141.33014 | 35771 ft | 515 kts | 4° |
| 2026-04-20 15:54 | 41.50560 | 141.34972 | 35769 ft | 516 kts | 5° |
| 2026-04-20 15:55 | 41.57587 | 141.36937 | 35771 ft | 516 kts | 5° |
| 2026-04-20 15:55 | 41.64628 | 141.38910 | 35767 ft | 517 kts | 4° |
| 2026-04-20 15:56 | 41.70536 | 141.40568 | 35769 ft | 518 kts | 5° |
| 2026-04-20 15:56 | 41.77686 | 141.42580 | 35776 ft | 518 kts | 5° |
| 2026-04-20 15:57 | 41.84746 | 141.44571 | 35823 ft | 518 kts | 5° |
| 2026-04-20 15:57 | 41.91883 | 141.46594 | 35779 ft | 521 kts | 5° |
| 2026-04-20 15:58 | 41.98925 | 141.48581 | 35771 ft | 520 kts | 5° |
| 2026-04-20 15:58 | 42.06033 | 141.50568 | 35784 ft | 520 kts | 5° |
| 2026-04-20 15:59 | 42.13115 | 141.52740 | 35787 ft | 526 kts | 10° |
| 2026-04-20 15:59 | 42.20040 | 141.56311 | 35795 ft | 532 kts | 18° |
| 2026-04-20 16:00 | 42.26844 | 141.60256 | 35800 ft | 531 kts | 18° |
| 2026-04-20 16:00 | 42.33673 | 141.64186 | 35805 ft | 530 kts | 18° |
| 2026-04-20 16:01 | 42.40540 | 141.68082 | 35811 ft | 527 kts | 18° |
| 2026-04-20 16:01 | 42.47340 | 141.71927 | 35805 ft | 525 kts | 18° |
| 2026-04-20 16:02 | 42.54071 | 141.75744 | 35804 ft | 524 kts | 18° |
| 2026-04-20 16:02 | 42.60880 | 141.79620 | 35805 ft | 522 kts | 18° |
| 2026-04-20 16:03 | 42.67575 | 141.83441 | 35813 ft | 522 kts | 18° |
| 2026-04-20 16:03 | 42.74432 | 141.87362 | 35807 ft | 522 kts | 18° |
| 2026-04-20 16:04 | 42.81198 | 141.91242 | 35801 ft | 524 kts | 18° |
| 2026-04-20 16:04 | 42.87919 | 141.95105 | 35807 ft | 525 kts | 18° |
| 2026-04-20 16:05 | 42.94676 | 141.98998 | 35847 ft | 526 kts | 18° |
| 2026-04-20 16:05 | 43.01421 | 142.02894 | 35805 ft | 529 kts | 18° |
| 2026-04-20 16:06 | 43.08271 | 142.06863 | 35809 ft | 531 kts | 18° |
| 2026-04-20 16:06 | 43.15105 | 142.10830 | 35818 ft | 532 kts | 18° |
| 2026-04-20 16:07 | 43.21936 | 142.14799 | 35799 ft | 533 kts | 19° |
| 2026-04-20 16:07 | 43.28741 | 142.18777 | 35810 ft | 534 kts | 19° |
| 2026-04-20 16:08 | 43.34457 | 142.22135 | 35822 ft | 533 kts | 19° |
| 2026-04-20 16:08 | 43.41343 | 142.26184 | 35809 ft | 533 kts | 19° |
| 2026-04-20 16:09 | 43.48069 | 142.30602 | 35793 ft | 534 kts | 26° |
| 2026-04-20 16:09 | 43.54442 | 142.35808 | 35822 ft | 533 kts | 27° |
| 2026-04-20 16:10 | 43.60874 | 142.41035 | 35770 ft | 532 kts | 26° |
| 2026-04-20 16:10 | 43.67066 | 142.46717 | 35751 ft | 536 kts | 36° |
| 2026-04-20 16:11 | 43.72482 | 142.53848 | 35773 ft | 538 kts | 46° |
| 2026-04-20 16:11 | 43.77571 | 142.61446 | 35754 ft | 540 kts | 46° |
| 2026-04-20 16:12 | 43.82743 | 142.69112 | 35743 ft | 539 kts | 45° |
| 2026-04-20 16:12 | 43.87898 | 142.76673 | 35744 ft | 539 kts | 45° |
| 2026-04-20 16:13 | 43.93050 | 142.84235 | 35745 ft | 539 kts | 45° |
| 2026-04-20 16:13 | 43.98154 | 142.91760 | 35771 ft | 539 kts | 46° |
| 2026-04-20 16:14 | 44.03365 | 142.99459 | 35748 ft | 539 kts | 46° |
| 2026-04-20 16:14 | 44.08525 | 143.07030 | 35733 ft | 538 kts | 45° |
| 2026-04-20 16:15 | 44.13713 | 143.14649 | 35736 ft | 539 kts | 45° |
| 2026-04-20 16:15 | 44.18871 | 143.22256 | 35740 ft | 539 kts | 45° |
| 2026-04-20 16:16 | 44.24028 | 143.29889 | 35732 ft | 541 kts | 45° |
| 2026-04-20 16:16 | 44.29195 | 143.37555 | 35739 ft | 542 kts | 45° |
| 2026-04-20 16:17 | 44.34567 | 143.44852 | 35745 ft | 542 kts | 40° |
| 2026-04-20 16:17 | 44.40172 | 143.51914 | 35744 ft | 543 kts | 39° |
| 2026-04-20 16:18 | 44.45784 | 143.58998 | 35763 ft | 543 kts | 39° |
| 2026-04-20 16:18 | 44.51389 | 143.66160 | 35759 ft | 545 kts | 40° |
| 2026-04-20 16:19 | 44.56960 | 143.73332 | 35755 ft | 544 kts | 40° |
| 2026-04-20 16:19 | 44.62520 | 143.80510 | 35758 ft | 541 kts | 39° |
| 2026-04-20 16:20 | 44.68126 | 143.87758 | 35755 ft | 538 kts | 39° |
| 2026-04-20 16:20 | 44.73615 | 143.94873 | 35760 ft | 536 kts | 39° |
| 2026-04-20 16:21 | 44.79140 | 144.02053 | 35775 ft | 535 kts | 40° |
| 2026-04-20 16:21 | 44.84599 | 144.09168 | 35775 ft | 535 kts | 40° |
| 2026-04-20 16:22 | 44.90181 | 144.16465 | 35787 ft | 535 kts | 40° |
| 2026-04-20 16:22 | 44.95651 | 144.23633 | 35799 ft | 538 kts | 40° |
| 2026-04-20 16:23 | 45.01166 | 144.30835 | 35806 ft | 541 kts | 38° |
| 2026-04-20 16:23 | 45.06874 | 144.37804 | 35817 ft | 542 kts | 37° |
| 2026-04-20 16:24 | 45.12649 | 144.44712 | 35806 ft | 543 kts | 37° |
| 2026-04-20 16:24 | 45.17504 | 144.50587 | 35816 ft | 542 kts | 37° |
| 2026-04-20 16:25 | 45.23199 | 144.57560 | 35825 ft | 540 kts | 37° |
| 2026-04-20 16:25 | 45.28899 | 144.64576 | 35828 ft | 537 kts | 37° |
| 2026-04-20 16:26 | 45.34474 | 144.71454 | 35854 ft | 535 kts | 37° |
| 2026-04-20 16:26 | 45.40179 | 144.78502 | 35852 ft | 535 kts | 37° |
| 2026-04-20 16:27 | 45.45805 | 144.85472 | 35855 ft | 534 kts | 37° |
| 2026-04-20 16:27 | 45.51408 | 144.92434 | 35870 ft | 534 kts | 37° |
| 2026-04-20 16:28 | 45.57008 | 144.99410 | 35880 ft | 534 kts | 37° |
| 2026-04-20 16:28 | 45.62602 | 145.06400 | 35872 ft | 534 kts | 37° |
| 2026-04-20 16:29 | 45.68194 | 145.13407 | 35888 ft | 535 kts | 37° |
| 2026-04-20 16:29 | 45.73781 | 145.20426 | 35896 ft | 535 kts | 37° |
| 2026-04-20 16:30 | 45.79453 | 145.27571 | 35917 ft | 535 kts | 37° |
| 2026-04-20 16:30 | 45.85044 | 145.34637 | 35916 ft | 536 kts | 37° |
| 2026-04-20 16:31 | 45.90671 | 145.41766 | 35912 ft | 536 kts | 37° |
| 2026-04-20 16:31 | 45.96222 | 145.48820 | 35921 ft | 536 kts | 37° |
| 2026-04-20 16:32 | 46.01845 | 145.55985 | 35943 ft | 535 kts | 37° |
| 2026-04-20 16:32 | 46.07404 | 145.63102 | 35942 ft | 535 kts | 37° |
| 2026-04-20 16:33 | 46.12995 | 145.70288 | 35939 ft | 534 kts | 37° |
| 2026-04-20 16:33 | 46.18534 | 145.77429 | 35962 ft | 534 kts | 37° |
| 2026-04-20 16:34 | 46.24073 | 145.84587 | 35958 ft | 533 kts | 37° |
| 2026-04-20 16:34 | 46.29599 | 145.91747 | 35961 ft | 533 kts | 37° |
| 2026-04-20 16:35 | 46.35116 | 145.98917 | 35962 ft | 533 kts | 37° |
| 2026-04-20 16:35 | 46.40634 | 146.06107 | 35969 ft | 534 kts | 37° |
| 2026-04-20 16:36 | 46.46164 | 146.13334 | 35967 ft | 535 kts | 38° |
| 2026-04-20 16:36 | 46.51737 | 146.20639 | 35976 ft | 536 kts | 38° |
| 2026-04-20 16:37 | 46.57272 | 146.27915 | 35975 ft | 537 kts | 38° |
| 2026-04-20 16:37 | 46.62816 | 146.35224 | 35995 ft | 538 kts | 38° |
| 2026-04-20 16:38 | 46.68364 | 146.42559 | 35992 ft | 539 kts | 38° |
| 2026-04-20 16:38 | 46.73908 | 146.49911 | 36012 ft | 539 kts | 38° |
| 2026-04-20 16:39 | 46.79461 | 146.57296 | 35996 ft | 540 kts | 38° |
| 2026-04-20 16:39 | 46.85039 | 146.64737 | 35995 ft | 539 kts | 38° |
| 2026-04-20 16:40 | 46.90542 | 146.72098 | 36009 ft | 539 kts | 38° |
| 2026-04-20 16:40 | 46.96071 | 146.79520 | 36023 ft | 538 kts | 38° |
| 2026-04-20 16:41 | 47.01616 | 146.87010 | 36017 ft | 538 kts | 38° |
| 2026-04-20 16:41 | 47.07103 | 146.94453 | 36049 ft | 537 kts | 38° |
| 2026-04-20 16:42 | 47.12584 | 147.01904 | 36036 ft | 537 kts | 38° |
| 2026-04-20 16:42 | 47.18059 | 147.09368 | 36036 ft | 536 kts | 38° |
| 2026-04-20 16:43 | 47.23527 | 147.16844 | 36035 ft | 536 kts | 38° |
| 2026-04-20 16:43 | 47.28984 | 147.24325 | 36055 ft | 536 kts | 38° |
| 2026-04-20 16:44 | 47.33557 | 147.30614 | 36047 ft | 536 kts | 38° |
| 2026-04-20 16:44 | 47.39001 | 147.38120 | 36057 ft | 536 kts | 38° |
| 2026-04-20 16:45 | 47.44450 | 147.45654 | 36056 ft | 536 kts | 38° |
| 2026-04-20 16:45 | 47.49924 | 147.53247 | 36079 ft | 535 kts | 38° |
| 2026-04-20 16:46 | 47.55392 | 147.60853 | 36070 ft | 535 kts | 38° |
| 2026-04-20 16:46 | 47.60815 | 147.68420 | 36070 ft | 535 kts | 38° |
| 2026-04-20 16:47 | 47.66269 | 147.76054 | 36084 ft | 534 kts | 37° |
| 2026-04-20 16:47 | 47.71707 | 147.83688 | 36076 ft | 534 kts | 37° |
| 2026-04-20 16:48 | 47.77108 | 147.91292 | 36091 ft | 533 kts | 38° |
| 2026-04-20 16:48 | 47.82460 | 147.98849 | 36090 ft | 533 kts | 38° |
| 2026-04-20 16:49 | 47.87835 | 148.06462 | 36097 ft | 532 kts | 37° |
| 2026-04-20 16:49 | 47.93196 | 148.14079 | 36127 ft | 532 kts | 37° |
| 2026-04-20 16:50 | 47.98548 | 148.21704 | 36109 ft | 533 kts | 37° |
| 2026-04-20 16:50 | 48.03905 | 148.29361 | 36119 ft | 533 kts | 37° |
| 2026-04-20 16:51 | 48.09260 | 148.37039 | 36110 ft | 533 kts | 37° |
| 2026-04-20 16:51 | 48.14609 | 148.44731 | 36114 ft | 533 kts | 37° |
| 2026-04-20 16:52 | 48.19950 | 148.52435 | 36110 ft | 533 kts | 37° |
| 2026-04-20 16:52 | 48.25287 | 148.60158 | 36126 ft | 533 kts | 37° |
| 2026-04-20 16:53 | 48.30614 | 148.67889 | 36117 ft | 532 kts | 37° |
| 2026-04-20 16:53 | 48.35932 | 148.75630 | 36128 ft | 532 kts | 37° |
| 2026-04-20 16:54 | 48.41244 | 148.83385 | 36128 ft | 532 kts | 37° |
| 2026-04-20 16:54 | 48.46545 | 148.91149 | 36130 ft | 532 kts | 37° |
| 2026-04-20 16:55 | 48.51846 | 148.98937 | 36137 ft | 532 kts | 37° |
| 2026-04-20 16:55 | 48.57147 | 149.06748 | 36132 ft | 532 kts | 37° |
| 2026-04-20 16:56 | 48.62434 | 149.14565 | 36148 ft | 532 kts | 37° |
| 2026-04-20 16:56 | 48.67713 | 149.22395 | 36129 ft | 531 kts | 37° |
| 2026-04-20 16:57 | 48.72975 | 149.30222 | 36142 ft | 530 kts | 37° |
| 2026-04-20 16:57 | 48.78220 | 149.38048 | 36160 ft | 528 kts | 37° |
| 2026-04-20 16:58 | 48.83418 | 149.45828 | 36152 ft | 527 kts | 37° |
| 2026-04-20 16:58 | 48.88695 | 149.53751 | 36151 ft | 525 kts | 37° |
| 2026-04-20 16:59 | 48.93852 | 149.61517 | 36151 ft | 524 kts | 37° |
| 2026-04-20 16:59 | 48.99059 | 149.69383 | 36168 ft | 523 kts | 37° |
| 2026-04-20 17:00 | 49.06789 | 149.81106 | 36162 ft | 521 kts | 37° |
| 2026-04-20 17:01 | 49.11912 | 149.88906 | 36172 ft | 520 kts | 37° |
| 2026-04-20 17:01 | 49.17025 | 149.96714 | 36181 ft | 520 kts | 37° |
| 2026-04-20 17:02 | 49.22138 | 150.04543 | 36170 ft | 520 kts | 37° |
| 2026-04-20 17:02 | 49.27243 | 150.12377 | 36193 ft | 519 kts | 37° |
| 2026-04-20 17:03 | 49.32343 | 150.20228 | 36183 ft | 520 kts | 37° |
| 2026-04-20 17:03 | 49.37445 | 150.28109 | 36178 ft | 520 kts | 37° |
| 2026-04-20 17:04 | 49.42528 | 150.35989 | 36181 ft | 519 kts | 37° |
| 2026-04-20 17:04 | 49.47604 | 150.43881 | 36177 ft | 518 kts | 37° |
| 2026-04-20 17:05 | 49.52663 | 150.51770 | 36206 ft | 518 kts | 37° |
| 2026-04-20 17:05 | 49.57717 | 150.59675 | 36185 ft | 517 kts | 37° |
| 2026-04-20 17:06 | 49.62771 | 150.67606 | 36181 ft | 517 kts | 37° |
| 2026-04-20 17:06 | 49.67806 | 150.75532 | 36182 ft | 516 kts | 37° |
| 2026-04-20 17:07 | 49.72855 | 150.83506 | 36230 ft | 516 kts | 37° |
| 2026-04-20 17:07 | 49.77872 | 150.91452 | 36191 ft | 516 kts | 37° |
| 2026-04-20 17:08 | 49.82068 | 150.98120 | 36186 ft | 515 kts | 37° |
| 2026-04-20 17:08 | 49.87097 | 151.06133 | 36188 ft | 515 kts | 37° |
| 2026-04-20 17:09 | 49.92083 | 151.14102 | 36217 ft | 514 kts | 37° |
| 2026-04-20 17:09 | 49.97066 | 151.22092 | 36193 ft | 514 kts | 37° |
| 2026-04-20 17:10 | 50.02035 | 151.30083 | 36194 ft | 514 kts | 37° |
| 2026-04-20 17:10 | 50.07006 | 151.38107 | 36192 ft | 514 kts | 37° |
| 2026-04-20 17:11 | 50.11957 | 151.46127 | 36216 ft | 514 kts | 37° |
| 2026-04-20 17:11 | 50.16917 | 151.54187 | 36193 ft | 514 kts | 37° |
| 2026-04-20 17:12 | 50.21854 | 151.62236 | 36189 ft | 514 kts | 37° |
| 2026-04-20 17:12 | 50.26657 | 151.70091 | 36199 ft | 514 kts | 37° |
| 2026-04-20 17:13 | 50.31722 | 151.78398 | 36193 ft | 513 kts | 37° |
| 2026-04-20 17:13 | 50.36677 | 151.86553 | 36185 ft | 514 kts | 37° |
| 2026-04-20 17:14 | 50.41612 | 151.94702 | 36191 ft | 514 kts | 37° |
| 2026-04-20 17:14 | 50.46554 | 152.02888 | 36192 ft | 514 kts | 37° |
| 2026-04-20 17:15 | 50.51506 | 152.11117 | 36195 ft | 515 kts | 37° |
| 2026-04-20 17:15 | 50.56457 | 152.19374 | 36187 ft | 514 kts | 37° |
| 2026-04-20 17:16 | 50.61361 | 152.27580 | 36183 ft | 514 kts | 37° |
| 2026-04-20 17:16 | 50.66252 | 152.35790 | 36183 ft | 513 kts | 37° |
| 2026-04-20 17:17 | 50.71132 | 152.44007 | 36181 ft | 513 kts | 37° |
| 2026-04-20 17:17 | 50.76025 | 152.52274 | 36179 ft | 511 kts | 37° |
| 2026-04-20 17:18 | 50.80869 | 152.60486 | 36172 ft | 510 kts | 37° |
| 2026-04-20 17:18 | 50.85733 | 152.68757 | 36179 ft | 509 kts | 37° |
| 2026-04-20 17:19 | 50.90517 | 152.76926 | 36168 ft | 501 kts | 38° |
| 2026-04-20 17:19 | 50.95228 | 152.84994 | 36171 ft | 498 kts | 38° |
| 2026-04-20 17:20 | 50.99941 | 152.93075 | 36169 ft | 499 kts | 38° |
| 2026-04-20 17:20 | 51.04649 | 153.01176 | 36168 ft | 500 kts | 38° |
| 2026-04-20 17:21 | 51.09399 | 153.09382 | 36166 ft | 501 kts | 39° |
| 2026-04-20 17:21 | 51.14107 | 153.17549 | 36163 ft | 500 kts | 39° |
| 2026-04-20 17:22 | 51.18830 | 153.25768 | 36160 ft | 499 kts | 39° |
| 2026-04-20 17:22 | 51.23486 | 153.33894 | 36159 ft | 498 kts | 39° |
| 2026-04-20 17:23 | 51.28153 | 153.42063 | 36159 ft | 498 kts | 39° |
| 2026-04-20 17:23 | 51.32875 | 153.50356 | 36154 ft | 497 kts | 39° |
| 2026-04-20 17:24 | 51.36858 | 153.57375 | 36153 ft | 496 kts | 39° |
| 2026-04-20 17:24 | 51.41458 | 153.65504 | 36150 ft | 495 kts | 40° |
| 2026-04-20 17:25 | 51.46114 | 153.73756 | 36160 ft | 495 kts | 40° |
| 2026-04-20 17:25 | 51.50691 | 153.81899 | 36147 ft | 494 kts | 40° |
| 2026-04-20 17:26 | 51.55293 | 153.90112 | 36144 ft | 493 kts | 40° |
| 2026-04-20 17:26 | 51.59889 | 153.98341 | 36140 ft | 492 kts | 40° |
| 2026-04-20 17:27 | 51.64449 | 154.06531 | 36168 ft | 491 kts | 41° |
| 2026-04-20 17:27 | 51.69008 | 154.14745 | 36146 ft | 491 kts | 41° |
| 2026-04-20 17:28 | 51.73553 | 154.22962 | 36134 ft | 491 kts | 41° |
| 2026-04-20 17:28 | 51.78084 | 154.31180 | 36136 ft | 491 kts | 41° |
| 2026-04-20 17:29 | 51.82623 | 154.39441 | 36178 ft | 491 kts | 42° |
| 2026-04-20 17:29 | 51.87138 | 154.47683 | 36138 ft | 491 kts | 42° |
| 2026-04-20 17:30 | 51.91659 | 154.55968 | 36121 ft | 491 kts | 42° |
| 2026-04-20 17:30 | 51.96200 | 154.64315 | 36133 ft | 490 kts | 42° |
| 2026-04-20 17:31 | 52.00703 | 154.72618 | 36140 ft | 490 kts | 42° |
| 2026-04-20 17:31 | 52.05186 | 154.80910 | 36133 ft | 490 kts | 43° |
| 2026-04-20 17:32 | 52.09713 | 154.89317 | 36126 ft | 490 kts | 43° |
| 2026-04-20 17:32 | 52.14194 | 154.97663 | 36125 ft | 489 kts | 43° |
| 2026-04-20 17:33 | 52.18665 | 155.06018 | 36122 ft | 489 kts | 43° |
| 2026-04-20 17:33 | 52.23164 | 155.14454 | 36127 ft | 488 kts | 43° |
| 2026-04-20 17:34 | 52.27617 | 155.22830 | 36123 ft | 488 kts | 43° |
| 2026-04-20 17:34 | 52.32068 | 155.31232 | 36114 ft | 489 kts | 43° |
| 2026-04-20 17:35 | 52.36482 | 155.39592 | 36111 ft | 489 kts | 43° |
| 2026-04-20 17:35 | 52.40960 | 155.48104 | 36133 ft | 489 kts | 44° |
| 2026-04-20 17:36 | 52.45402 | 155.56571 | 36117 ft | 490 kts | 44° |
| 2026-04-20 17:36 | 52.49887 | 155.65154 | 36104 ft | 489 kts | 44° |
| 2026-04-20 17:37 | 52.54302 | 155.73632 | 36107 ft | 489 kts | 44° |
| 2026-04-20 17:37 | 52.58711 | 155.82127 | 36137 ft | 488 kts | 45° |
| 2026-04-20 17:38 | 52.63143 | 155.90689 | 36104 ft | 488 kts | 45° |
| 2026-04-20 17:38 | 52.67536 | 155.99229 | 36099 ft | 487 kts | 45° |
| 2026-04-20 17:39 | 52.71903 | 156.07762 | 36096 ft | 486 kts | 45° |
| 2026-04-20 17:39 | 52.76294 | 156.16363 | 36097 ft | 486 kts | 45° |
| 2026-04-20 17:40 | 52.80400 | 156.25261 | 36093 ft | 492 kts | 55° |
| 2026-04-20 17:40 | 52.83248 | 156.35634 | 36097 ft | 500 kts | 69° |
| 2026-04-20 17:41 | 52.85163 | 156.46944 | 36095 ft | 501 kts | 71° |
| 2026-04-20 17:41 | 52.86067 | 156.52515 | 35796 ft | 505 kts | 71° |
| 2026-04-20 17:41 | 52.87007 | 156.58240 | 34784 ft | 517 kts | 71° |
| 2026-04-20 17:41 | 52.87955 | 156.63955 | 33928 ft | 517 kts | 70° |
| 2026-04-20 17:42 | 52.88617 | 156.67916 | 33314 ft | 516 kts | 70° |
| 2026-04-20 17:42 | 52.89571 | 156.73603 | 32381 ft | 513 kts | 70° |
| 2026-04-20 17:42 | 52.90529 | 156.79299 | 31419 ft | 512 kts | 70° |
| 2026-04-20 17:42 | 52.91484 | 156.84986 | 30462 ft | 511 kts | 70° |
| 2026-04-20 17:43 | 52.92426 | 156.90616 | 29781 ft | 503 kts | 70° |
| 2026-04-20 17:43 | 52.93362 | 156.96243 | 29052 ft | 495 kts | 70° |
| 2026-04-20 17:43 | 52.94264 | 157.01687 | 28415 ft | 486 kts | 70° |
| 2026-04-20 17:43 | 52.95150 | 157.07046 | 27814 ft | 478 kts | 70° |
| 2026-04-20 17:44 | 52.96020 | 157.12325 | 27221 ft | 471 kts | 70° |
| 2026-04-20 17:44 | 52.96882 | 157.17560 | 26649 ft | 465 kts | 71° |
| 2026-04-20 17:44 | 52.97728 | 157.22710 | 26046 ft | 459 kts | 71° |
| 2026-04-20 17:44 | 52.98560 | 157.27792 | 25482 ft | 454 kts | 71° |
| 2026-04-20 17:45 | 52.99379 | 157.32815 | 24922 ft | 448 kts | 71° |
| 2026-04-20 17:45 | 53.00187 | 157.37784 | 24367 ft | 444 kts | 71° |
| 2026-04-20 17:45 | 53.00986 | 157.42711 | 23820 ft | 439 kts | 71° |
| 2026-04-20 17:45 | 53.01783 | 157.47638 | 23209 ft | 434 kts | 71° |
| 2026-04-20 17:46 | 53.02563 | 157.52464 | 22599 ft | 429 kts | 71° |
| 2026-04-20 17:46 | 53.03325 | 157.57208 | 22071 ft | 423 kts | 72° |
| 2026-04-20 17:46 | 53.04060 | 157.61912 | 21572 ft | 418 kts | 74° |
| 2026-04-20 17:46 | 53.04628 | 157.66630 | 21038 ft | 414 kts | 77° |
| 2026-04-20 17:47 | 53.05083 | 157.71330 | 20505 ft | 410 kts | 78° |
| 2026-04-20 17:47 | 53.05508 | 157.76058 | 19996 ft | 405 kts | 78° |
| 2026-04-20 17:47 | 53.05923 | 157.80671 | 19491 ft | 401 kts | 78° |
| 2026-04-20 17:47 | 53.06344 | 157.85234 | 18997 ft | 397 kts | 78° |
| 2026-04-20 17:48 | 53.06770 | 157.89749 | 18508 ft | 393 kts | 78° |
| 2026-04-20 17:48 | 53.07199 | 157.94219 | 17959 ft | 390 kts | 78° |
| 2026-04-20 17:48 | 53.07628 | 157.98651 | 17431 ft | 386 kts | 78° |
| 2026-04-20 17:48 | 53.08051 | 158.03028 | 16961 ft | 381 kts | 78° |
| 2026-04-20 17:49 | 53.08468 | 158.07361 | 16465 ft | 377 kts | 78° |
| 2026-04-20 17:49 | 53.08878 | 158.11645 | 16003 ft | 374 kts | 79° |
| 2026-04-20 17:49 | 53.09285 | 158.15905 | 15500 ft | 371 kts | 79° |
| 2026-04-20 17:49 | 53.09688 | 158.20131 | 15018 ft | 367 kts | 79° |
| 2026-04-20 17:50 | 53.10085 | 158.24317 | 14560 ft | 364 kts | 79° |
| 2026-04-20 17:50 | 53.10478 | 158.28483 | 14093 ft | 362 kts | 79° |
| 2026-04-20 17:50 | 53.10865 | 158.32588 | 13593 ft | 359 kts | 79° |
| 2026-04-20 17:50 | 53.11249 | 158.36689 | 13072 ft | 357 kts | 79° |
| 2026-04-20 17:51 | 53.11630 | 158.40760 | 12585 ft | 354 kts | 79° |
| 2026-04-20 17:51 | 53.12006 | 158.44792 | 12152 ft | 350 kts | 79° |
| 2026-04-20 17:51 | 53.12382 | 158.48840 | 11702 ft | 347 kts | 79° |
| 2026-04-20 17:51 | 53.12733 | 158.52628 | 11566 ft | 336 kts | 80° |
| 2026-04-20 17:52 | 53.13095 | 158.56571 | 11413 ft | 324 kts | 80° |
| 2026-04-20 17:52 | 53.13434 | 158.60277 | 11275 ft | 314 kts | 80° |
| 2026-04-20 17:52 | 53.13742 | 158.63812 | 11142 ft | 301 kts | 83° |
| 2026-04-20 17:52 | 53.13501 | 158.67172 | 11020 ft | 289 kts | 110° |
| 2026-04-20 17:53 | 53.12435 | 158.69971 | 10697 ft | 286 kts | 134° |
| 2026-04-20 17:53 | 53.10874 | 158.71987 | 10314 ft | 284 kts | 153° |
| 2026-04-20 17:53 | 53.09069 | 158.73298 | 9919 ft | 282 kts | 158° |
| 2026-04-20 17:53 | 53.07243 | 158.74512 | 9279 ft | 283 kts | 158° |
| 2026-04-20 17:54 | 53.05449 | 158.75716 | 8518 ft | 276 kts | 158° |
| 2026-04-20 17:54 | 53.03707 | 158.76882 | 7957 ft | 264 kts | 158° |
| 2026-04-20 17:54 | 53.01966 | 158.77756 | 7470 ft | 262 kts | 178° |
| 2026-04-20 17:54 | 53.00201 | 158.77117 | 7056 ft | 262 kts | 212° |
| 2026-04-20 17:55 | 52.98949 | 158.75002 | 6668 ft | 258 kts | 241° |
| 2026-04-20 17:55 | 52.98199 | 158.72389 | 6100 ft | 246 kts | 248° |
| 2026-04-20 17:55 | 52.97516 | 158.69775 | 5468 ft | 247 kts | 248° |
| 2026-04-20 17:55 | 52.96842 | 158.67170 | 4908 ft | 246 kts | 248° |
| 2026-04-20 17:56 | 52.96188 | 158.64520 | 4444 ft | 248 kts | 252° |
| 2026-04-20 17:56 | 52.95971 | 158.61758 | 3954 ft | 238 kts | 283° |
| 2026-04-20 17:56 | 52.96749 | 158.59478 | 3745 ft | 223 kts | 321° |
| 2026-04-20 17:56 | 52.98032 | 158.58315 | 3696 ft | 199 kts | 336° |
| 2026-04-20 17:57 | 52.99289 | 158.57394 | 3404 ft | 194 kts | 336° |
| 2026-04-20 17:57 | 53.00502 | 158.56513 | 3053 ft | 189 kts | 336° |
| 2026-04-20 17:57 | 53.01694 | 158.55661 | 2694 ft | 182 kts | 336° |
| 2026-04-20 17:57 | 53.02826 | 158.54856 | 2475 ft | 170 kts | 336° |
| 2026-04-20 17:58 | 53.03875 | 158.54113 | 2273 ft | 161 kts | 336° |
| 2026-04-20 17:58 | 53.04908 | 158.53380 | 2120 ft | 163 kts | 336° |
| 2026-04-20 17:58 | 53.05961 | 158.52646 | 1896 ft | 164 kts | 337° |
| 2026-04-20 17:58 | 53.07017 | 158.51918 | 1740 ft | 157 kts | 337° |
| 2026-04-20 17:59 | 53.07992 | 158.51246 | 1501 ft | 144 kts | 338° |
| 2026-04-20 17:59 | 53.08914 | 158.50609 | 1377 ft | 145 kts | 338° |
| 2026-04-20 17:59 | 53.09850 | 158.49965 | 1220 ft | 145 kts | 339° |
| 2026-04-20 17:59 | 53.10770 | 158.49330 | 1037 ft | 141 kts | 338° |
| 2026-04-20 18:00 | 53.11672 | 158.48707 | 902 ft | 141 kts | 338° |
| 2026-04-20 18:00 | 53.12581 | 158.48081 | 744 ft | 140 kts | 338° |
| 2026-04-20 18:00 | 53.13485 | 158.47456 | 576 ft | 140 kts | 338° |
| 2026-04-20 18:00 | 53.14387 | 158.46826 | 410 ft | 141 kts | 337° |
| 2026-04-20 18:01 | 53.15295 | 158.46196 | 242 ft | 142 kts | 337° |
| 2026-04-20 18:01 | 53.16198 | 158.45566 | 125 ft | 133 kts | 337° |
| 2026-04-20 18:01 | 53.16957 | 158.45042 | 121 ft | 96 kts | 337° |
| 2026-04-20 18:01 | 53.17429 | 158.44715 | 126 ft | 45 kts | 337° |
| 2026-04-20 18:02 | 53.17566 | 158.44615 | 125 ft | 15 kts | 323° |
| 2026-04-20 18:02 | 53.17573 | 158.44509 | 122 ft | 15 kts | 250° |
| 2026-04-20 18:02 | 53.17534 | 158.44355 | 140 ft | 14 kts | 247° |
| 2026-04-20 18:02 | 53.17498 | 158.44207 | 148 ft | 14 kts | 248° |
| 2026-04-20 18:03 | 53.17479 | 158.44126 | 154 ft | 0 kts | 248° |